地図

経路データ

SID SEASON NUMBER BASIN SUBBASIN NAME ISO_TIME NATURE LAT LON WMO_WIND WMO_PRES WMO_AGENCY TRACK_TYPE DIST2LAND LANDFALL IFLAG USA_AGENCY USA_ATCF_ID USA_LAT USA_LON USA_RECORD USA_STATUS USA_WIND USA_PRES USA_SSHS USA_R34_NE USA_R34_SE USA_R34_SW USA_R34_NW USA_R50_NE USA_R50_SE USA_R50_SW USA_R50_NW USA_R64_NE USA_R64_SE USA_R64_SW USA_R64_NW USA_POCI USA_ROCI USA_RMW USA_EYE TOKYO_LAT TOKYO_LON TOKYO_GRADE TOKYO_WIND TOKYO_PRES TOKYO_R50_DIR TOKYO_R50_LONG TOKYO_R50_SHORT TOKYO_R30_DIR TOKYO_R30_LONG TOKYO_R30_SHORT TOKYO_LAND CMA_LAT CMA_LON CMA_CAT CMA_WIND CMA_PRES HKO_LAT HKO_LON HKO_CAT HKO_WIND HKO_PRES NEWDELHI_LAT NEWDELHI_LON NEWDELHI_GRADE NEWDELHI_WIND NEWDELHI_PRES NEWDELHI_CI NEWDELHI_DP NEWDELHI_POCI REUNION_LAT REUNION_LON REUNION_TYPE REUNION_WIND REUNION_PRES REUNION_TNUM REUNION_CI REUNION_RMW REUNION_R34_NE REUNION_R34_SE REUNION_R34_SW REUNION_R34_NW REUNION_R50_NE REUNION_R50_SE REUNION_R50_SW REUNION_R50_NW REUNION_R64_NE REUNION_R64_SE REUNION_R64_SW REUNION_R64_NW BOM_LAT BOM_LON BOM_TYPE BOM_WIND BOM_PRES BOM_TNUM BOM_CI BOM_RMW BOM_R34_NE BOM_R34_SE BOM_R34_SW BOM_R34_NW BOM_R50_NE BOM_R50_SE BOM_R50_SW BOM_R50_NW BOM_R64_NE BOM_R64_SE BOM_R64_SW BOM_R64_NW BOM_ROCI BOM_POCI BOM_EYE BOM_POS_METHOD BOM_PRES_METHOD NADI_LAT NADI_LON NADI_CAT NADI_WIND NADI_PRES WELLINGTON_LAT WELLINGTON_LON WELLINGTON_WIND WELLINGTON_PRES DS824_LAT DS824_LON DS824_STAGE DS824_WIND DS824_PRES TD9636_LAT TD9636_LON TD9636_STAGE TD9636_WIND TD9636_PRES TD9635_LAT TD9635_LON TD9635_WIND TD9635_PRES TD9635_ROCI NEUMANN_LAT NEUMANN_LON NEUMANN_CLASS NEUMANN_WIND NEUMANN_PRES MLC_LAT MLC_LON MLC_CLASS MLC_WIND MLC_PRES USA_GUST BOM_GUST BOM_GUST_PER REUNION_GUST REUNION_GUST_PER USA_SEAHGT USA_SEARAD_NE USA_SEARAD_SE USA_SEARAD_SW USA_SEARAD_NW STORM_SPEED STORM_DIR
1954269N14088 1954 72 NI BB NOT_NAMED 1954-09-25 18:00:00 TS 14.1000 88.0000 main 628 588 O________O____ jtwc_io IO101954 14.1000 88.0000 -1 14.1000 88.0000 TC 8 325
1954269N14088 1954 72 NI BB NOT_NAMED 1954-09-25 21:00:00 TS 14.4200 87.7676 main 588 541 P________P____ IO101954 14.4200 87.7676 -1 14.4200 87.7676 TC 8 321
1954269N14088 1954 72 NI BB NOT_NAMED 1954-09-26 00:00:00 TS 14.7000 87.5000 main 541 503 O________O____ jtwc_io IO101954 14.7000 87.5000 -1 14.7000 87.5000 TC 35 8 311
1954269N14088 1954 72 NI BB NOT_NAMED 1954-09-26 03:00:00 TS 14.9133 87.1755 main 503 459 P________PO___ IO101954 14.9150 87.1724 -1 14.9150 87.1724 TC 35 14.9000 87.2000 2 8 300
1954269N14088 1954 72 NI BB NOT_NAMED 1954-09-26 06:00:00 TS 15.0993 86.7943 main 459 415 O________OP___ jtwc_io IO101954 15.1000 86.8000 -1 15.1000 86.8000 TC 35 15.0964 86.7713 2 9 297
1954269N14088 1954 72 NI BB NOT_NAMED 1954-09-26 09:00:00 TS 15.2983 86.3873 main 415 372 P________PP___ IO101954 15.3000 86.4000 -1 15.3000 86.4000 TC 35 15.2939 86.3536 2 9 297
1954269N14088 1954 72 NI BB NOT_NAMED 1954-09-26 12:00:00 TS 15.4981 85.9864 main 372 331 O________OP___ jtwc_io IO101954 15.5000 86.0000 -1 15.5000 86.0000 TC 35 15.4944 85.9592 2 8 298
1954269N14088 1954 72 NI BB NOT_NAMED 1954-09-26 15:00:00 TS 15.6950 85.6233 main 331 293 P________PO___ IO101954 15.6924 85.6349 -1 15.6924 85.6349 TC 35 15.7000 85.6000 3 8 301
1954269N14088 1954 72 NI BB NOT_NAMED 1954-09-26 18:00:00 TS 15.9042 85.2926 main 293 254 O________OP___ jtwc_io IO101954 15.9000 85.3000 -1 15.9000 85.3000 TC 35 15.9125 85.2778 3 7 307
1954269N14088 1954 72 NI BB NOT_NAMED 1954-09-26 21:00:00 TS 16.1441 85.0144 main 254 208 P________PP___ IO101954 16.1496 85.0448 -1 16.1496 85.0448 TC 30 16.1331 84.9536 3 8 308
1954269N14088 1954 72 NI BB NOT_NAMED 1954-09-27 00:00:00 TS 16.3874 84.6592 main 208 147 O________OP___ jtwc_io IO101954 16.4000 84.7000 -1 16.4000 84.7000 TC 25 16.3622 84.5776 3 10 298
1954269N14088 1954 72 NI BB NOT_NAMED 1954-09-27 03:00:00 TS 16.6000 84.1115 main 147 94 P________PO___ IO101954 16.6000 84.1173 -1 16.6000 84.1173 TC 25 16.6000 84.1000 1 13 290
1954269N14088 1954 72 NI BB NOT_NAMED 1954-09-27 06:00:00 TS 16.8105 83.4192 main 89 30 O________OP___ jtwc_io IO101954 16.8000 83.4000 -1 16.8000 83.4000 TC 25 16.8314 83.4575 1 14 288
1954269N14088 1954 72 NI BB NOT_NAMED 1954-09-27 09:00:00 TS 17.0469 82.6805 main 30 0 P________PP___ IO101954 17.0349 82.6648 -1 17.0349 82.6648 TC 25 17.0710 82.7118 1 15 289
1954269N14088 1954 72 NI BB NOT_NAMED 1954-09-27 12:00:00 TS 17.3083 81.9034 main 0 0 O________OP___ jtwc_io IO101954 17.3000 81.9000 -1 17.3000 81.9000 TC 25 17.3249 81.9102 1 16 290
1954269N14088 1954 72 NI BB NOT_NAMED 1954-09-27 15:00:00 TS 17.5948 81.1332 main 0 0 P________PO___ IO101954 17.5922 81.1498 -1 17.5922 81.1498 TC 25 17.6000 81.1000 1 16 292
1954269N14088 1954 72 NI BB NOT_NAMED 1954-09-27 18:00:00 TS 17.8987 80.3605 main 0 0 O________OP___ jtwc_io IO101954 17.9000 80.4000 -1 17.9000 80.4000 TC 25 17.8960 80.2815 1 16 292
1954269N14088 1954 72 NI BB NOT_NAMED 1954-09-27 21:00:00 TS 18.1944 79.5859 main 0 0 P________PP___ IO101954 18.1848 79.6421 -1 18.1848 79.6421 TC 25 18.2137 79.4734 1 16 293
1954269N14088 1954 72 NI BB NOT_NAMED 1954-09-28 00:00:00 TS 18.5165 78.8428 main 0 0 O________OP___ jtwc_io IO101954 18.5000 78.9000 -1 18.5000 78.9000 TC 25 18.5494 78.7284 1 16 297
1954269N14088 1954 72 NI BB NOT_NAMED 1954-09-28 03:00:00 TS 18.8952 78.1169 main 0 0 P________PO___ IO101954 18.8927 78.1254 -1 18.8927 78.1254 TC 25 18.9000 78.1000 1 15 302
1954269N14088 1954 72 NI AS NOT_NAMED 1954-09-28 06:00:00 TS 19.2876 77.5478 main 0 0 O________OP___ jtwc_io IO101954 19.3000 77.5000 -1 19.3000 77.5000 TC 25 19.2629 77.6435 1 11 312
1954269N14088 1954 72 NI AS NOT_NAMED 1954-09-28 09:00:00 TS 19.6465 77.2233 main 0 0 P________PP___ IO101954 19.6495 77.1819 -1 19.6495 77.1819 TC 25 19.6404 77.3060 1 9 325
1954269N14088 1954 72 NI AS NOT_NAMED 1954-09-28 12:00:00 TS 20.0076 77.0135 main 0 0 O________OP___ jtwc_io IO101954 20.0000 77.0000 -1 20.0000 77.0000 TC 25 20.0228 77.0406 1 9 331
1954269N14088 1954 72 NI AS NOT_NAMED 1954-09-28 15:00:00 TS 20.4000 76.7716 main 0 0 P________PO___ IO101954 20.3999 76.7574 -1 20.3999 76.7574 TC 25 20.4000 76.8000 1 9 328
1954269N14088 1954 72 NI AS NOT_NAMED 1954-09-28 18:00:00 TS 20.7952 76.4968 main 0 0 O________OP___ jtwc_io IO101954 20.8000 76.5000 -1 20.8000 76.5000 TC 25 20.7855 76.4904 1 9 325
1954269N14088 1954 72 NI AS NOT_NAMED 1954-09-28 21:00:00 TS 21.1683 76.1943 main 0 0 P________PP___ IO101954 21.1726 76.1926 -1 21.1726 76.1926 TC 25 21.1599 76.1977 1 9 322
1954269N14088 1954 72 NI AS NOT_NAMED 1954-09-29 00:00:00 TS 21.5015 75.9104 main 0 0 O________OP___ jtwc_io IO101954 21.5000 75.9000 -1 21.5000 75.9000 TC 25 21.5044 75.9311 1 8 323
1954269N14088 1954 72 NI AS NOT_NAMED 1954-09-29 03:00:00 TS 21.7866 75.6849 main 0 0 P________PO___ IO101954 21.7799 75.6774 -1 21.7799 75.6774 TC 25 21.8000 75.7000 1 6 323
1954269N14088 1954 72 NI AS NOT_NAMED 1954-09-29 06:00:00 TS 22.0070 75.5031 main 0 0 O________OP___ jtwc_io IO101954 22.0000 75.5000 -1 22.0000 75.5000 TC 25 22.0210 75.5093 1 5 321
1954269N14088 1954 72 NI AS NOT_NAMED 1954-09-29 09:00:00 TS 22.1699 75.3463 main 0 0 P________PP___ IO101954 22.1575 75.3424 -1 22.1575 75.3424 TC 25 22.1947 75.3541 1 4 318
1954269N14088 1954 72 NI AS NOT_NAMED 1954-09-29 12:00:00 TS 22.3154 75.2073 main 0 0 O________OP___ jtwc_io IO101954 22.3000 75.2000 -1 22.3000 75.2000 TC 25 22.3461 75.2219 1 4 321
1954269N14088 1954 72 NI AS NOT_NAMED 1954-09-29 15:00:00 TS 22.4950 75.0617 main 0 0 P________PO___ IO101954 22.4925 75.0425 -1 22.4925 75.0425 TC 25 22.5000 75.1000 1 5 322
1954269N14088 1954 72 NI AS NOT_NAMED 1954-09-29 18:00:00 TS 22.6813 74.8972 main 0 0 O________OP___ jtwc_io IO101954 22.7000 74.9000 -1 22.7000 74.9000 TC 25 22.6440 74.8917 1 5 322
1954269N14088 1954 72 NI AS NOT_NAMED 1954-09-29 21:00:00 TS 22.8574 74.7523 main 0 0 P________PP___ IO101954 22.8850 74.7775 -1 22.8850 74.7775 TC 25 22.8022 74.7021 1 4 331
1954269N14088 1954 72 NI AS NOT_NAMED 1954-09-30 00:00:00 TS 23.0698 74.6621 main 0 0 O________OP___ jtwc_io IO101954 23.1000 74.7000 -1 23.1000 74.7000 TC 25 23.0093 74.5863 1 5 345
1954269N14088 1954 72 NI AS NOT_NAMED 1954-09-30 03:00:00 TS 23.3316 74.6171 main 0 0 P________PO___ IO101954 23.3473 74.6256 -1 23.3473 74.6256 TC 25 23.3000 74.6000 1 7 6
1954269N14088 1954 72 NI AS NOT_NAMED 1954-09-30 06:00:00 TS 23.7168 74.7304 main 0 0 O________OP___ jtwc_io IO101954 23.7000 74.7000 -1 23.7000 74.7000 TC 25 23.7504 74.7913 1 10 24
1954269N14088 1954 72 NI AS NOT_NAMED 1954-09-30 09:00:00 TS 24.2443 75.0604 main 0 0 P________PP___ IO101954 24.2276 75.0319 -1 24.2276 75.0319 TC 25 24.2776 75.1173 1 13 33
1954269N14088 1954 72 NI AS NOT_NAMED 1954-09-30 12:00:00 TS 24.8053 75.5117 main 0 0 O________OP___ jtwc_io IO101954 24.8000 75.5000 -1 24.8000 75.5000 TC 25 24.8160 75.5350 1 13 38
1954269N14088 1954 72 NI AS NOT_NAMED 1954-09-30 15:00:00 TS 25.2966 75.9567 main 0 0 P________PO___ IO101954 25.2948 75.9351 -1 25.2948 75.9351 TC 25 25.3000 76.0000 1 12 43
1954269N14088 1954 72 NI AS NOT_NAMED 1954-09-30 18:00:00 TS 25.6921 76.4295 main 0 0 O________OP___ jtwc_io IO101954 25.7000 76.4000 -1 25.7000 76.4000 TC 25 25.6803 76.4738 1 11 52
1954269N14088 1954 72 NI AS NOT_NAMED 1954-09-30 21:00:00 TS 25.9791 76.9164 main 0 0 P________PP___ IO101954 25.9854 76.8923 -1 25.9854 76.8923 TC 25 25.9708 76.9485 1 10 60
1954269N14088 1954 72 NI AS NOT_NAMED 1954-10-01 00:00:00 TS 26.2004 77.4119 main 0 0 O________OP___ jtwc_io IO101954 26.2000 77.4000 -1 26.2000 77.4000 TC 25 26.2009 77.4238 1 10 65
1954269N14088 1954 72 NI AS NOT_NAMED 1954-10-01 03:00:00 NR 26.4000 77.9000 main 0 __________O___ IO101954 -1 TC 26.4000 77.9000 1 10 65

IBTrACS Databaseについて

本データベースは、米国NOAAが公開する1842年以降の世界の熱帯低気圧のベストトラックデータアーカイブInternational Best Track Archive for Climate Stewardship (IBTrACS)を、ウェブで閲覧しやすい形式に変換したものです。

最終更新日:2021-10-08